Time,TemperatureF,DewpointF,PressureIn,WindDirection,WindDirectionDegrees,WindSpeedMPH,WindSpeedGustMPH,Humidity,HourlyPrecipIn,Conditions,Clouds,dailyrainin,SoftwareType,DateUTC
2013-09-25 00:11:00,62.6,45.0,29.93,ENE,58,3.0,5.0,53,0.00,,,0.00,weatherlink.com 1.10,2013-09-25 04:11:00,
2013-09-25 00:27:00,62.2,45.0,29.93,ESE,114,3.0,6.0,53,0.00,,,0.00,weatherlink.com 1.10,2013-09-25 04:27:00,
2013-09-25 00:42:00,61.8,44.0,29.93,ENE,69,0.0,5.0,52,0.00,,,0.00,weatherlink.com 1.10,2013-09-25 04:42:00,
2013-09-25 00:57:00,61.3,43.0,29.93,SE,129,1.0,5.0,52,0.00,,,0.00,weatherlink.com 1.10,2013-09-25 04:57:00,
2013-09-25 01:12:00,60.8,43.0,29.93,NW,309,0.0,2.0,53,0.00,,,0.00,weatherlink.com 1.10,2013-09-25 05:12:00,
2013-09-25 01:27:00,60.6,42.0,29.93,ENE,75,4.0,7.0,51,0.00,,,0.00,weatherlink.com 1.10,2013-09-25 05:27:00,
2013-09-25 01:42:00,60.2,42.0,29.94,ESE,117,4.0,6.0,51,0.00,,,0.00,weatherlink.com 1.10,2013-09-25 05:42:00,
2013-09-25 01:57:00,59.6,42.0,29.94,East,84,1.0,4.0,52,0.00,,,0.00,weatherlink.com 1.10,2013-09-25 05:57:00,
2013-09-25 02:12:00,59.5,42.0,29.93,East,83,5.0,10.0,53,0.00,,,0.00,weatherlink.com 1.10,2013-09-25 06:12:00,
2013-09-25 02:27:00,59.1,42.0,29.93,NE,56,2.0,6.0,54,0.00,,,0.00,weatherlink.com 1.10,2013-09-25 06:27:00,
2013-09-25 02:42:00,58.8,43.0,29.93,East,86,0.0,3.0,57,0.00,,,0.00,weatherlink.com 1.10,2013-09-25 06:42:00,
2013-09-25 02:57:00,58.8,43.0,29.93,SE,127,2.0,6.0,57,0.00,,,0.00,weatherlink.com 1.10,2013-09-25 06:57:00,
2013-09-25 03:12:00,-999.0,-99.9,29.93,North,-999,-999.0,-999.0,-999,0.00,,,0.00,weatherlink.com 1.10,2013-09-25 07:12:00,
2013-09-25 03:27:00,-999.0,-99.9,29.93,North,-999,-999.0,-999.0,-999,0.00,,,0.00,weatherlink.com 1.10,2013-09-25 07:27:00,
2013-09-25 03:42:00,-999.0,-99.9,29.93,North,-999,-999.0,-999.0,-999,0.00,,,0.00,weatherlink.com 1.10,2013-09-25 07:42:00,
2013-09-25 03:57:00,-999.0,-99.9,29.93,North,-999,-999.0,-999.0,-999,0.00,,,0.00,weatherlink.com 1.10,2013-09-25 07:57:00,
2013-09-25 04:12:00,-999.0,-99.9,29.93,North,-999,-999.0,-999.0,-999,0.00,,,0.00,weatherlink.com 1.10,2013-09-25 08:12:00,
2013-09-25 04:27:00,-999.0,-99.9,29.93,North,-999,-999.0,-999.0,-999,0.00,,,0.00,weatherlink.com 1.10,2013-09-25 08:27:00,
2013-09-25 04:42:00,-999.0,-99.9,29.93,North,-999,-999.0,-999.0,-999,0.00,,,0.00,weatherlink.com 1.10,2013-09-25 08:42:00,
2013-09-25 04:57:00,-999.0,-99.9,29.93,North,-999,-999.0,-999.0,-999,0.00,,,0.00,weatherlink.com 1.10,2013-09-25 08:57:00,
2013-09-25 05:13:00,-999.0,-99.9,29.93,North,-999,-999.0,-999.0,-999,0.00,,,0.00,weatherlink.com 1.10,2013-09-25 09:13:00,
2013-09-25 05:28:00,-999.0,-99.9,29.93,North,-999,-999.0,-999.0,-999,0.00,,,0.00,weatherlink.com 1.10,2013-09-25 09:28:00,
2013-09-25 05:43:00,-999.0,-99.9,29.94,North,-999,-999.0,-999.0,-999,0.00,,,0.00,weatherlink.com 1.10,2013-09-25 09:43:00,
2013-09-25 05:58:00,-999.0,-99.9,29.93,North,-999,-999.0,-999.0,-999,0.00,,,0.00,weatherlink.com 1.10,2013-09-25 09:58:00,
2013-09-25 06:13:00,-999.0,-99.9,29.94,North,-999,-999.0,-999.0,-999,0.00,,,0.00,weatherlink.com 1.10,2013-09-25 10:13:00,
2013-09-25 06:28:00,-999.0,-99.9,29.94,North,-999,-999.0,-999.0,-999,0.00,,,0.00,weatherlink.com 1.10,2013-09-25 10:28:00,
2013-09-25 06:43:00,-999.0,-99.9,29.94,North,-999,-999.0,-999.0,-999,0.00,,,0.00,weatherlink.com 1.10,2013-09-25 10:43:00,
2013-09-25 06:58:00,-999.0,-99.9,29.94,North,-999,-999.0,-999.0,-999,0.00,,,0.00,weatherlink.com 1.10,2013-09-25 10:58:00,
2013-09-25 07:13:00,-999.0,-99.9,29.94,North,-999,-999.0,-999.0,-999,0.00,,,0.00,weatherlink.com 1.10,2013-09-25 11:13:00,
2013-09-25 07:28:00,57.0,44.0,29.94,East,90,0.0,1.0,63,0.00,,,0.00,weatherlink.com 1.10,2013-09-25 11:28:00,
2013-09-25 07:58:00,58.8,45.0,29.95,East,84,0.0,2.0,61,0.00,,,0.00,weatherlink.com 1.10,2013-09-25 11:58:00,
2013-09-25 08:13:00,60.2,46.0,29.94,ESE,114,1.0,3.0,59,0.00,,,0.00,weatherlink.com 1.10,2013-09-25 12:13:00,
2013-09-25 08:28:00,60.1,46.0,29.94,ENE,68,1.0,3.0,60,0.00,,,0.00,weatherlink.com 1.10,2013-09-25 12:28:00,
2013-09-25 08:43:00,60.7,47.0,29.95,East,83,2.0,4.0,60,0.00,,,0.00,weatherlink.com 1.10,2013-09-25 12:43:00,
2013-09-25 08:58:00,61.1,46.0,29.95,East,84,2.0,5.0,59,0.00,,,0.00,weatherlink.com 1.10,2013-09-25 12:58:00,
2013-09-25 09:13:00,61.9,46.0,29.94,NE,43,2.0,4.0,57,0.00,,,0.00,weatherlink.com 1.10,2013-09-25 13:13:00,
2013-09-25 09:28:00,62.3,46.0,29.95,NE,52,3.0,5.0,55,0.00,,,0.00,weatherlink.com 1.10,2013-09-25 13:28:00,
2013-09-25 09:43:00,63.4,46.0,29.95,East,99,1.0,4.0,54,0.00,,,0.00,weatherlink.com 1.10,2013-09-25 13:43:00,
2013-09-25 09:58:00,63.8,46.0,29.95,ENE,58,2.0,4.0,53,0.00,,,0.00,weatherlink.com 1.10,2013-09-25 13:58:00,
2013-09-25 10:13:00,65.0,46.0,29.95,NNE,25,2.0,4.0,50,0.00,,,0.00,weatherlink.com 1.10,2013-09-25 14:13:00,
2013-09-25 10:28:00,66.0,46.0,29.95,ENE,58,0.0,3.0,48,0.00,,,0.00,weatherlink.com 1.10,2013-09-25 14:28:00,
2013-09-25 10:43:00,65.6,45.0,29.95,ESE,102,0.0,3.0,47,0.00,,,0.00,weatherlink.com 1.10,2013-09-25 14:43:00,
2013-09-25 10:58:00,67.1,45.0,29.94,West,272,1.0,4.0,46,0.00,,,0.00,weatherlink.com 1.10,2013-09-25 14:58:00,
2013-09-25 11:29:00,68.3,45.0,29.93,West,281,3.0,5.0,44,0.00,,,0.00,weatherlink.com 1.10,2013-09-25 15:29:00,
2013-09-25 11:44:00,68.6,44.0,29.94,ENE,74,2.0,4.0,42,0.00,,,0.00,weatherlink.com 1.10,2013-09-25 15:44:00,
2013-09-25 11:59:00,69.9,44.0,29.93,West,271,1.0,3.0,40,0.00,,,0.00,weatherlink.com 1.10,2013-09-25 15:59:00,
2013-09-25 12:13:00,70.5,44.0,29.93,NW,316,0.0,2.0,38,0.00,,,0.00,weatherlink.com 1.10,2013-09-25 16:13:00,
2013-09-25 12:29:00,70.8,42.0,29.93,NW,313,1.0,5.0,36,0.00,,,0.00,weatherlink.com 1.10,2013-09-25 16:29:00,
2013-09-25 12:44:00,71.1,41.0,29.92,SSW,205,0.0,5.0,34,0.00,,,0.00,weatherlink.com 1.10,2013-09-25 16:44:00,
2013-09-25 12:59:00,71.1,42.0,29.92,SW,229,2.0,4.0,35,0.00,,,0.00,weatherlink.com 1.10,2013-09-25 16:59:00,
2013-09-25 13:14:00,72.6,43.0,29.91,WNW,300,0.0,4.0,34,0.00,,,0.00,weatherlink.com 1.10,2013-09-25 17:14:00,
2013-09-25 13:29:00,73.6,43.0,29.91,NNW,342,2.0,5.0,34,0.00,,,0.00,weatherlink.com 1.10,2013-09-25 17:29:00,
2013-09-25 13:44:00,72.2,43.0,29.90,ENE,64,1.0,4.0,35,0.00,,,0.00,weatherlink.com 1.10,2013-09-25 17:44:00,
2013-09-25 13:59:00,72.2,44.0,29.89,West,270,1.0,3.0,36,0.00,,,0.00,weatherlink.com 1.10,2013-09-25 17:59:00,